Time;durP1;ratioP1;P1;durP2;ratioP2;P2;SDS_P1;SDS_P2;PMS_P1;PMS_P2;Temp;Humidity;BMP_temperature;BMP_pressure;BME280_temperature;BME280_humidity;BME280_pressure;Samples;Min_cycle;Max_cycle;Signal;HPM_P1;HPM_P2
2021/08/24 00:02:48;;;;;;;0.60;0.52;;;24.50;54.30;;;;;;6242744;28;20479;-69
2021/08/24 00:05:49;;;;;;;0.82;0.73;;;24.50;54.40;;;;;;6242751;28;20068;-69
2021/08/24 00:08:49;;;;;;;0.60;0.50;;;24.50;54.40;;;;;;6242358;28;20259;-69
2021/08/24 00:11:50;;;;;;;0.98;0.65;;;24.50;54.40;;;;;;6241962;28;20026;-68
2021/08/24 00:14:50;;;;;;;0.95;0.77;;;24.50;54.30;;;;;;6233418;28;20064;-69
2021/08/24 00:17:51;;;;;;;0.82;0.60;;;24.50;54.40;;;;;;6242373;28;20033;-69
2021/08/24 00:20:53;;;;;;;0.63;0.60;;;24.50;54.40;;;;;;6242268;28;20579;-69
2021/08/24 00:23:54;;;;;;;0.80;0.60;;;24.50;54.40;;;;;;6241967;28;20025;-69
2021/08/24 00:26:54;;;;;;;0.90;0.60;;;24.50;54.40;;;;;;6242914;28;20037;-69
2021/08/24 00:29:55;;;;;;;0.70;0.65;;;24.50;54.30;;;;;;6241563;28;20141;-69
2021/08/24 00:32:55;;;;;;;0.70;0.50;;;24.50;54.50;;;;;;6241977;28;20029;-69
2021/08/24 00:35:56;;;;;;;0.85;0.60;;;24.50;54.50;;;;;;6240347;28;20021;-69
2021/08/24 00:38:56;;;;;;;0.85;0.60;;;24.50;54.50;;;;;;6241634;28;20300;-69
2021/08/24 00:41:57;;;;;;;0.95;0.50;;;24.50;54.50;;;;;;6241407;28;20022;-69
2021/08/24 00:44:58;;;;;;;1.00;0.73;;;24.50;54.40;;;;;;6240460;28;20128;-69
2021/08/24 00:47:58;;;;;;;0.50;0.50;;;24.50;54.50;;;;;;6241940;28;20048;-69
2021/08/24 00:50:59;;;;;;;1.13;0.60;;;24.50;54.50;;;;;;6241535;28;20037;-69
2021/08/24 00:54:01;;;;;;;0.73;0.52;;;24.50;54.50;;;;;;6241024;28;20033;-69
2021/08/24 00:57:07;;;;;;;1.08;0.55;;;24.50;54.50;;;;;;6240979;28;20048;-69
2021/08/24 01:00:09;;;;;;;0.65;0.57;;;24.50;54.50;;;;;;6241073;28;20025;-68
2021/08/24 01:03:12;;;;;;;0.75;0.70;;;24.50;54.50;;;;;;6240763;28;20075;-69
2021/08/24 01:06:37;;;;;;;0.70;0.60;;;24.50;54.60;;;;;;6240658;28;20022;-69
2021/08/24 01:09:55;;;;;;;0.80;0.60;;;24.50;54.50;;;;;;6241216;28;20021;-69
2021/08/24 01:13:14;;;;;;;0.70;0.60;;;24.50;54.60;;;;;;6241234;28;20034;-69
2021/08/24 01:16:27;;;;;;;0.77;0.55;;;24.50;54.60;;;;;;6221882;28;20014;-69
2021/08/24 01:20:06;;;;;;;0.70;0.70;;;24.50;54.60;;;;;;6239843;28;20029;-69
2021/08/24 01:23:35;;;;;;;1.08;0.60;;;24.50;54.60;;;;;;6239782;28;20469;-69
2021/08/24 01:26:53;;;;;;;0.90;0.60;;;24.50;54.60;;;;;;6240867;28;20051;-69
2021/08/24 01:30:19;;;;;;;0.80;0.60;;;24.50;54.60;;;;;;6240617;28;20439;-69
2021/08/24 01:33:29;;;;;;;1.50;0.60;;;24.50;54.60;;;;;;6239471;28;20387;-69
2021/08/24 01:36:41;;;;;;;0.98;0.65;;;24.50;54.70;;;;;;6240579;28;20033;-69
2021/08/24 01:39:47;;;;;;;0.57;0.50;;;24.50;54.60;;;;;;6230632;28;20088;-69
2021/08/24 01:42:48;;;;;;;0.63;0.57;;;24.50;54.50;;;;;;6235422;28;20671;-69
2021/08/24 01:45:55;;;;;;;0.77;0.60;;;24.50;54.60;;;;;;6240678;28;20029;-68
2021/08/24 01:49:00;;;;;;;0.80;0.52;;;24.50;54.60;;;;;;6240666;28;20017;-69
2021/08/24 01:52:04;;;;;;;;;;;24.50;54.60;;;;;;6243067;28;20486;-69
2021/08/24 01:55:12;;;;;;;0.80;0.60;;;24.50;54.60;;;;;;6245536;28;19911;-69
2021/08/24 01:58:24;;;;;;;1.08;0.70;;;24.50;54.60;;;;;;6244871;28;20045;-68
2021/08/24 02:01:32;;;;;;;1.30;0.70;;;24.50;54.60;;;;;;6245545;28;20430;-69
2021/08/24 02:04:40;;;;;;;0.70;0.50;;;24.50;54.70;;;;;;6245747;28;20021;-69
2021/08/24 02:07:42;;;;;;;0.63;0.50;;;24.50;54.70;;;;;;6245445;28;20063;-69
2021/08/24 02:10:45;;;;;;;0.82;0.70;;;24.50;54.70;;;;;;6245245;28;20116;-68
2021/08/24 02:13:49;;;;;;;0.50;0.50;;;24.40;54.60;;;;;;6239956;28;20451;-69
2021/08/24 02:16:51;;;;;;;0.57;0.50;;;24.50;54.60;;;;;;6221925;28;20041;-70
2021/08/24 02:20:01;;;;;;;0.75;0.50;;;24.40;54.60;;;;;;6245123;28;20831;-68
2021/08/24 02:23:12;;;;;;;0.40;0.40;;;24.40;54.50;;;;;;6245167;28;20533;-68
2021/08/24 02:26:14;;;;;;;0.80;0.65;;;24.50;54.60;;;;;;6245147;28;20514;-69
2021/08/24 02:29:15;;;;;;;0.40;0.40;;;24.50;55.30;;;;;;6244783;28;20029;-69
2021/08/24 02:32:25;;;;;;;1.17;0.60;;;24.50;54.60;;;;;;6244605;28;20040;-69
2021/08/24 02:35:36;;;;;;;0.90;0.57;;;24.50;54.60;;;;;;6244762;28;20030;-69
2021/08/24 02:38:38;;;;;;;0.70;0.60;;;24.40;54.50;;;;;;6244316;28;20023;-68
2021/08/24 02:41:47;;;;;;;0.60;0.50;;;24.40;54.60;;;;;;6244559;28;20040;-69
2021/08/24 02:44:56;;;;;;;0.60;0.50;;;24.40;54.70;;;;;;6244271;28;20029;-69
2021/08/24 02:48:03;;;;;;;0.70;0.60;;;24.40;54.60;;;;;;6243956;28;20029;-69
2021/08/24 02:51:05;;;;;;;0.52;0.50;;;24.40;54.60;;;;;;6244292;28;20128;-69
2021/08/24 02:54:28;;;;;;;0.60;0.60;;;24.40;54.60;;;;;;6244237;28;20026;-69
2021/08/24 02:57:28;;;;;;;1.13;0.63;;;24.40;54.70;;;;;;6243649;28;20050;-69
2021/08/24 03:00:29;;;;;;;0.50;0.50;;;24.40;54.60;;;;;;6244398;28;20025;-68
2021/08/24 03:03:30;;;;;;;0.77;0.40;;;24.50;54.60;;;;;;6237142;28;20109;-68
2021/08/24 03:06:33;;;;;;;0.70;0.60;;;24.40;54.60;;;;;;6244130;28;20091;-69
2021/08/24 03:09:36;;;;;;;0.40;0.40;;;24.40;54.60;;;;;;6243497;28;20030;-69
2021/08/24 03:13:07;;;;;;;0.80;0.70;;;24.40;54.60;;;;;;6244035;28;20097;-69
2021/08/24 03:16:28;;;;;;;0.85;0.57;;;24.40;54.70;;;;;;6243808;28;20486;-69
2021/08/24 03:19:32;;;;;;;0.50;0.50;;;24.40;54.70;;;;;;6243490;28;20072;-69
2021/08/24 03:22:34;;;;;;;0.50;0.50;;;24.40;54.60;;;;;;6243923;28;20034;-69
2021/08/24 03:25:35;;;;;;;0.95;0.60;;;24.40;54.70;;;;;;6244140;28;20041;-69
2021/08/24 03:28:40;;;;;;;0.70;0.60;;;24.40;54.60;;;;;;6243244;28;20368;-69
2021/08/24 03:31:41;;;;;;;;;;;24.40;54.70;;;;;;6243709;28;20029;-68
2021/08/24 03:34:42;;;;;;;0.75;0.50;;;24.40;54.70;;;;;;6243186;28;19928;-69
2021/08/24 03:37:45;;;;;;;0.40;0.38;;;24.40;54.70;;;;;;6243247;28;20108;-69
2021/08/24 03:40:46;;;;;;;0.60;0.50;;;24.40;54.60;;;;;;6243159;28;20585;-69
2021/08/24 03:43:46;;;;;;;0.70;0.52;;;24.40;54.60;;;;;;6243204;28;20030;-69
2021/08/24 03:46:47;;;;;;;0.60;0.60;;;24.40;54.60;;;;;;6243608;28;20029;-69
2021/08/24 03:49:47;;;;;;;0.80;0.60;;;24.40;54.70;;;;;;6242764;28;20049;-69
2021/08/24 03:52:49;;;;;;;0.80;0.63;;;24.40;54.60;;;;;;6242748;28;20037;-68
2021/08/24 03:55:50;;;;;;;0.65;0.52;;;24.40;54.60;;;;;;6242502;28;20514;-69
2021/08/24 03:58:50;;;;;;;0.55;0.50;;;24.40;54.70;;;;;;6242890;28;20026;-69
2021/08/24 04:01:51;;;;;;;0.80;0.63;;;24.40;54.70;;;;;;6242363;28;20048;-68
2021/08/24 04:04:52;;;;;;;0.47;0.47;;;24.40;54.60;;;;;;6239727;28;20392;-69
2021/08/24 04:07:53;;;;;;;1.42;0.60;;;24.40;54.60;;;;;;6242512;28;20471;-70
2021/08/24 04:10:54;;;;;;;3.50;0.70;;;24.40;54.60;;;;;;6243053;28;20022;-68
2021/08/24 04:13:54;;;;;;;0.60;0.50;;;24.40;54.60;;;;;;6235205;28;20014;-68
2021/08/24 04:16:55;;;;;;;0.60;0.60;;;24.40;54.70;;;;;;6239759;28;20029;-69
2021/08/24 04:19:56;;;;;;;1.27;0.80;;;24.40;54.70;;;;;;6241717;28;20042;-69
2021/08/24 04:22:56;;;;;;;0.93;0.65;;;24.40;54.70;;;;;;6242646;28;20033;-68
2021/08/24 04:25:59;;;;;;;0.82;0.55;;;24.40;54.70;;;;;;6240599;28;20317;-69
2021/08/24 04:29:00;;;;;;;0.60;0.50;;;24.40;54.70;;;;;;6242614;28;20478;-69
2021/08/24 04:32:00;;;;;;;0.50;0.50;;;24.40;54.70;;;;;;6242000;28;20059;-69
2021/08/24 04:35:01;;;;;;;0.47;0.43;;;24.40;54.80;;;;;;6240480;28;20025;-68
2021/08/24 04:38:02;;;;;;;0.85;0.40;;;24.40;55.00;;;;;;6240409;28;20225;-68
2021/08/24 04:41:03;;;;;;;0.82;0.70;;;24.40;54.80;;;;;;6242115;28;20041;-69
2021/08/24 04:44:04;;;;;;;0.82;0.50;;;24.40;54.80;;;;;;6240419;28;20033;-69
2021/08/24 04:47:05;;;;;;;0.50;0.50;;;24.40;54.80;;;;;;6241562;28;20029;-69
2021/08/24 04:50:06;;;;;;;0.70;0.50;;;24.40;54.80;;;;;;6241605;28;20398;-69
2021/08/24 04:53:08;;;;;;;0.73;0.70;;;24.40;54.80;;;;;;6242175;28;20431;-69
2021/08/24 04:56:08;;;;;;;0.68;0.55;;;24.40;54.90;;;;;;6240128;28;20447;-69
2021/08/24 04:59:09;;;;;;;0.70;0.60;;;24.40;54.90;;;;;;6241338;28;20068;-68
2021/08/24 05:02:10;;;;;;;0.43;0.40;;;24.40;54.80;;;;;;6229912;28;20369;-69
2021/08/24 05:05:12;;;;;;;0.68;0.50;;;24.40;54.90;;;;;;6232333;28;20053;-69
2021/08/24 05:08:12;;;;;;;0.40;0.40;;;24.40;54.90;;;;;;6241544;28;20467;-69
2021/08/24 05:11:13;;;;;;;0.75;0.55;;;24.40;54.80;;;;;;6240914;28;20053;-69
2021/08/24 05:14:14;;;;;;;0.77;0.47;;;24.40;54.80;;;;;;6232001;28;20411;-69
2021/08/24 05:17:14;;;;;;;0.82;0.55;;;24.40;54.90;;;;;;6230276;28;20034;-69
2021/08/24 05:20:16;;;;;;;0.70;0.68;;;24.40;54.80;;;;;;6241021;28;20337;-68
2021/08/24 05:23:17;;;;;;;0.85;0.45;;;24.40;54.80;;;;;;6241519;28;20025;-70
2021/08/24 05:26:20;;;;;;;1.08;0.60;;;24.40;54.80;;;;;;6241291;28;20072;-67
2021/08/24 05:29:21;;;;;;;9.35;1.02;;;24.40;54.40;;;;;;6241399;28;20105;-67
2021/08/24 05:32:21;;;;;;;3.78;1.02;;;24.40;53.30;;;;;;6240242;28;20030;-67
2021/08/24 05:35:23;;;;;;;2.75;0.93;;;24.40;53.20;;;;;;6241158;28;20037;-67
2021/08/24 05:38:23;;;;;;;3.50;1.05;;;24.40;52.80;;;;;;6240501;28;20022;-67
2021/08/24 05:41:24;;;;;;;3.58;1.10;;;24.40;53.10;;;;;;6237834;28;20037;-67
2021/08/24 05:44:24;;;;;;;6.03;1.00;;;24.40;53.30;;;;;;6216526;28;20376;-67
2021/08/24 05:47:28;;;;;;;1.52;0.73;;;24.40;53.50;;;;;;6217858;28;20022;-67
2021/08/24 05:50:28;;;;;;;1.50;0.80;;;24.40;53.50;;;;;;6216527;28;20041;-68
2021/08/24 05:53:29;;;;;;;1.40;0.77;;;24.40;53.60;;;;;;6233493;28;20049;-67
2021/08/24 05:56:29;;;;;;;1.17;0.80;;;24.40;53.70;;;;;;6240242;28;20042;-67
2021/08/24 05:59:32;;;;;;;1.40;0.60;;;24.40;53.70;;;;;;6238302;28;20033;-67
2021/08/24 06:02:34;;;;;;;0.80;0.60;;;24.40;53.80;;;;;;6238650;28;20104;-67
2021/08/24 06:05:38;;;;;;;5.47;0.93;;;24.40;53.80;;;;;;6243355;28;20029;-67
2021/08/24 06:08:39;;;;;;;3.15;1.00;;;24.40;54.00;;;;;;6232938;28;20022;-67
2021/08/24 06:11:47;;;;;;;1.42;0.65;;;24.40;53.80;;;;;;6218468;28;20030;-67
2021/08/24 06:14:48;;;;;;;1.42;0.80;;;24.40;53.90;;;;;;6229157;28;20548;-67
2021/08/24 06:17:48;;;;;;;1.55;0.80;;;24.40;54.00;;;;;;6225155;28;20018;-67
2021/08/24 06:20:49;;;;;;;1.27;0.70;;;24.40;54.10;;;;;;6243598;28;20029;-67
2021/08/24 06:23:49;;;;;;;0.73;0.73;;;24.40;54.00;;;;;;6242986;28;20037;-67
2021/08/24 06:26:50;;;;;;;1.00;0.57;;;24.40;54.10;;;;;;6242961;28;20037;-67
2021/08/24 06:29:51;;;;;;;1.20;0.88;;;24.40;54.20;;;;;;6242807;28;20032;-66
2021/08/24 06:32:54;;;;;;;1.08;0.60;;;24.40;54.20;;;;;;6243119;28;20458;-68
2021/08/24 06:35:54;;;;;;;0.93;0.60;;;24.40;54.10;;;;;;6243036;28;20026;-68
2021/08/24 06:38:55;;;;;;;1.92;0.70;;;24.40;54.30;;;;;;6245008;28;20541;-69
2021/08/24 06:41:55;;;;;;;0.95;0.70;;;24.40;54.20;;;;;;6247472;28;20037;-69
2021/08/24 06:44:56;;;;;;;0.68;0.57;;;24.40;54.20;;;;;;6248002;28;20052;-73
2021/08/24 06:47:57;;;;;;;0.77;0.63;;;24.40;54.30;;;;;;6248281;28;20080;-71
2021/08/24 06:50:58;;;;;;;1.75;0.80;;;24.40;54.20;;;;;;6246901;28;20509;-72
2021/08/24 06:53:59;;;;;;;0.70;0.63;;;24.40;54.30;;;;;;6238137;28;20022;-72
2021/08/24 06:57:04;;;;;;;1.20;0.70;;;24.40;54.30;;;;;;6221328;28;20128;-71
2021/08/24 07:00:11;;;;;;;1.10;0.75;;;24.40;54.30;;;;;;6240507;28;20040;-71
2021/08/24 07:03:13;;;;;;;0.75;0.70;;;24.40;54.40;;;;;;6246598;28;20209;-72
2021/08/24 07:06:14;;;;;;;0.63;0.52;;;24.40;54.40;;;;;;6247133;28;20048;-71
2021/08/24 07:09:15;;;;;;;1.70;0.90;;;24.40;54.30;;;;;;6245349;28;20061;-72
2021/08/24 07:12:15;;;;;;;0.68;0.52;;;24.40;54.40;;;;;;6245694;28;20021;-72
2021/08/24 07:15:19;;;;;;;0.75;0.70;;;24.40;54.40;;;;;;6244660;28;20049;-72
2021/08/24 07:18:20;;;;;;;0.77;0.65;;;24.40;54.50;;;;;;6244776;28;20407;-70
2021/08/24 07:21:22;;;;;;;0.60;0.55;;;24.40;54.40;;;;;;6245377;28;20068;-71
2021/08/24 07:24:23;;;;;;;1.05;0.63;;;24.40;54.50;;;;;;6245350;28;20425;-72
2021/08/24 07:27:23;;;;;;;1.10;0.68;;;24.40;54.40;;;;;;6246370;28;20030;-71
2021/08/24 07:30:24;;;;;;;1.30;0.85;;;24.40;54.40;;;;;;6245031;28;20049;-71
2021/08/24 07:33:25;;;;;;;1.00;0.65;;;24.40;54.50;;;;;;6244915;28;20021;-71
2021/08/24 07:36:25;;;;;;;0.75;0.50;;;24.40;54.50;;;;;;6245681;28;20044;-71
2021/08/24 07:39:26;;;;;;;1.30;0.95;;;24.40;54.50;;;;;;6246229;28;20051;-72
2021/08/24 07:42:26;;;;;;;1.25;0.77;;;24.40;54.50;;;;;;6245950;28;20033;-71
2021/08/24 07:45:27;;;;;;;0.70;0.70;;;24.40;54.50;;;;;;6245922;28;20083;-72
2021/08/24 07:48:28;;;;;;;0.77;0.55;;;24.40;54.50;;;;;;6244198;28;20385;-72
2021/08/24 07:51:29;;;;;;;1.33;0.80;;;24.40;54.50;;;;;;6244029;28;20064;-71
2021/08/24 07:54:29;;;;;;;1.40;0.80;;;24.40;54.40;;;;;;6246133;28;20112;-72
2021/08/24 07:57:30;;;;;;;0.90;0.70;;;24.40;54.50;;;;;;6244368;28;20057;-71
2021/08/24 08:00:30;;;;;;;1.55;0.85;;;24.40;54.50;;;;;;6243984;28;20505;-70
2021/08/24 08:03:31;;;;;;;1.17;0.70;;;24.40;54.50;;;;;;6245408;28;20105;-71
2021/08/24 08:06:32;;;;;;;1.27;0.80;;;24.40;54.60;;;;;;6245934;28;20018;-70
2021/08/24 08:09:32;;;;;;;0.70;0.55;;;24.40;54.60;;;;;;6244091;28;20104;-72
2021/08/24 08:12:33;;;;;;;0.85;0.70;;;24.40;54.60;;;;;;6245158;28;20064;-70
2021/08/24 08:15:34;;;;;;;0.80;0.70;;;24.40;54.60;;;;;;6235486;28;20399;-71
2021/08/24 08:18:34;;;;;;;1.10;0.70;;;24.40;54.60;;;;;;6244305;28;20502;-71
2021/08/24 08:21:37;;;;;;;1.38;0.70;;;24.40;54.60;;;;;;6243494;28;20025;-72
2021/08/24 08:24:38;;;;;;;0.98;0.70;;;24.40;54.80;;;;;;6243750;28;20071;-72
2021/08/24 08:27:38;;;;;;;0.95;0.60;;;24.40;54.70;;;;;;6243765;28;20037;-72
2021/08/24 08:30:44;;;;;;;0.65;0.65;;;24.40;54.60;;;;;;6243719;28;20075;-71
2021/08/24 08:33:45;;;;;;;1.00;0.80;;;24.40;54.70;;;;;;6243216;28;20033;-71
2021/08/24 08:36:48;;;;;;;1.13;0.73;;;24.40;54.70;;;;;;6243596;28;20040;-72
2021/08/24 08:39:48;;;;;;;0.82;0.60;;;24.40;54.70;;;;;;6243181;28;20394;-72
2021/08/24 08:43:18;;;;;;;1.45;0.77;;;24.40;54.90;;;;;;6243246;28;20079;-71
2021/08/24 08:46:43;;;;;;;0.80;0.60;;;24.40;54.70;;;;;;6243000;28;20072;-71
2021/08/24 08:50:00;;;;;;;0.88;0.73;;;24.40;54.70;;;;;;6243122;28;20044;-72
2021/08/24 08:53:44;;;;;;;0.60;0.50;;;24.40;54.80;;;;;;6243590;28;20065;-72
2021/08/24 08:57:16;;;;;;;0.60;0.50;;;24.40;54.80;;;;;;6181183;28;20049;-72
2021/08/24 09:00:20;;;;;;;1.33;0.68;;;24.40;54.70;;;;;;6242400;28;20079;-72
2021/08/24 09:03:32;;;;;;;0.70;0.70;;;24.40;54.70;;;;;;6242881;28;20030;-73
2021/08/24 09:06:33;;;;;;;1.30;0.68;;;24.40;54.80;;;;;;6244105;28;20496;-72
2021/08/24 09:09:35;;;;;;;1.13;0.80;;;24.40;54.90;;;;;;6244250;28;20374;-70
2021/08/24 09:12:36;;;;;;;0.70;0.65;;;24.40;54.80;;;;;;6234720;28;20032;-71
2021/08/24 09:15:45;;;;;;;0.90;0.60;;;24.40;54.70;;;;;;6234625;28;20124;-72
2021/08/24 09:18:58;;;;;;;0.73;0.60;;;24.40;54.80;;;;;;6240953;28;20120;-72
2021/08/24 09:21:59;;;;;;;0.82;0.60;;;24.40;54.80;;;;;;6243379;28;20029;-72
2021/08/24 09:25:02;;;;;;;0.60;0.40;;;24.40;54.70;;;;;;6242696;28;20537;-72
2021/08/24 09:28:16;;;;;;;0.50;0.43;;;24.40;54.70;;;;;;6243969;28;20018;-72
2021/08/24 09:31:20;;;;;;;0.73;0.60;;;24.40;54.70;;;;;;6242072;28;20026;-72
2021/08/24 09:34:26;;;;;;;0.75;0.60;;;24.40;54.70;;;;;;6242643;28;20054;-70
2021/08/24 09:37:27;;;;;;;0.80;0.70;;;24.40;54.80;;;;;;6242404;28;20048;-73
2021/08/24 09:40:44;;;;;;;0.50;0.50;;;24.40;54.90;;;;;;6243167;28;20043;-71
2021/08/24 09:43:45;;;;;;;0.60;0.55;;;24.40;54.90;;;;;;6233862;28;20538;-71
2021/08/24 09:46:46;;;;;;;0.70;0.60;;;24.40;54.80;;;;;;6219578;28;20017;-71
2021/08/24 09:49:48;;;;;;;0.85;0.63;;;24.40;54.80;;;;;;6243819;28;20110;-71
2021/08/24 09:52:50;;;;;;;0.82;0.65;;;24.40;54.90;;;;;;6243089;28;20048;-73
2021/08/24 09:55:52;;;;;;;0.90;0.70;;;24.40;54.80;;;;;;6242061;28;20033;-72
2021/08/24 09:58:53;;;;;;;0.88;0.70;;;24.40;55.00;;;;;;6243347;28;20029;-72
2021/08/24 10:01:54;;;;;;;1.38;0.65;;;24.40;54.90;;;;;;6241900;28;20647;-71
2021/08/24 10:04:55;;;;;;;0.93;0.80;;;24.40;55.00;;;;;;6234248;28;20117;-72
2021/08/24 10:07:58;;;;;;;1.20;0.63;;;24.40;54.90;;;;;;6226771;28;20503;-72
2021/08/24 10:11:01;;;;;;;0.50;0.50;;;24.40;55.00;;;;;;6241998;28;20125;-72
2021/08/24 10:14:27;;;;;;;1.98;1.00;;;24.40;55.00;;;;;;6239335;28;20097;-72
2021/08/24 10:17:35;;;;;;;0.73;0.68;;;24.40;55.00;;;;;;6227465;28;20025;-72
2021/08/24 10:20:58;;;;;;;0.85;0.55;;;24.40;55.00;;;;;;6248545;28;20021;-71
2021/08/24 10:24:01;;;;;;;0.85;0.63;;;24.40;55.10;;;;;;6246202;28;20032;-72
2021/08/24 10:27:09;;;;;;;0.70;0.70;;;24.40;55.00;;;;;;6248598;28;20101;-72
2021/08/24 10:30:15;;;;;;;1.13;0.60;;;24.40;55.00;;;;;;6247731;28;20082;-72
2021/08/24 10:33:26;;;;;;;1.17;0.80;;;24.40;55.00;;;;;;6246509;28;20025;-72
2021/08/24 10:36:43;;;;;;;0.68;0.63;;;24.40;55.00;;;;;;6247419;28;20053;-72
2021/08/24 10:39:44;;;;;;;0.65;0.60;;;24.40;55.00;;;;;;6246097;28;20029;-72
2021/08/24 10:43:09;;;;;;;0.55;0.55;;;24.40;55.00;;;;;;6247887;28;20105;-72
2021/08/24 10:46:15;;;;;;;0.90;0.75;;;24.40;55.00;;;;;;6248158;28;20021;-72
2021/08/24 10:49:16;;;;;;;0.45;0.40;;;24.40;54.90;;;;;;6245798;28;20030;-71
2021/08/24 10:52:40;;;;;;;0.88;0.70;;;24.40;55.00;;;;;;6247871;28;20087;-72
2021/08/24 10:56:06;;;;;;;0.60;0.50;;;24.40;55.00;;;;;;6247044;28;20095;-72
2021/08/24 10:59:19;;;;;;;0.75;0.50;;;24.40;55.10;;;;;;6245857;28;20299;-71
2021/08/24 11:02:28;;;;;;;0.73;0.60;;;24.40;55.00;;;;;;6245290;28;20037;-71
2021/08/24 11:05:43;;;;;;;0.63;0.47;;;24.30;54.90;;;;;;6246980;28;20026;-72
2021/08/24 11:09:02;;;;;;;0.65;0.50;;;24.40;55.00;;;;;;6245744;28;20371;-72
2021/08/24 11:12:07;;;;;;;0.85;0.57;;;24.40;55.00;;;;;;6246506;28;20075;-70
2021/08/24 11:15:15;;;;;;;1.17;0.60;;;24.40;55.10;;;;;;6245807;28;20044;-71
2021/08/24 11:18:36;;;;;;;1.25;0.77;;;24.40;55.00;;;;;;6246964;28;20452;-72
2021/08/24 11:21:52;;;;;;;0.60;0.60;;;24.40;55.00;;;;;;6220910;28;20388;-73
2021/08/24 11:25:31;;;;;;;0.73;0.52;;;24.40;55.10;;;;;;6219572;28;20438;-68
2021/08/24 11:28:55;;;;;;;1.08;0.70;;;24.30;54.90;;;;;;6239845;28;20036;-71
2021/08/24 11:32:03;;;;;;;0.82;0.60;;;24.40;55.00;;;;;;6240196;28;20056;-70
2021/08/24 11:35:10;;;;;;;0.38;0.38;;;24.40;55.10;;;;;;6229897;28;20032;-71
2021/08/24 11:38:16;;;;;;;0.73;0.60;;;24.40;55.00;;;;;;6232698;28;20030;-70
2021/08/24 11:41:23;;;;;;;0.70;0.57;;;24.40;55.10;;;;;;6239472;28;20112;-71
2021/08/24 11:44:31;;;;;;;1.23;0.70;;;24.40;55.10;;;;;;6242133;28;20025;-71
2021/08/24 11:47:42;;;;;;;1.15;0.80;;;24.40;55.10;;;;;;6244185;28;20109;-71
2021/08/24 11:51:00;;;;;;;0.93;0.70;;;24.40;55.00;;;;;;6243918;28;20025;-70
2021/08/24 11:54:15;;;;;;;0.95;0.73;;;24.30;54.90;;;;;;6241017;28;20033;-71
2021/08/24 11:57:34;;;;;;;;;;;24.40;55.10;;;;;;6240940;28;20140;-72
2021/08/24 12:00:39;;;;;;;0.90;0.60;;;24.30;55.00;;;;;;6238659;28;19963;-72
2021/08/24 12:03:51;;;;;;;2.10;0.93;;;24.40;55.00;;;;;;6242544;28;20033;-71
2021/08/24 12:06:58;;;;;;;1.02;0.70;;;24.40;55.10;;;;;;6240757;28;20813;-71
2021/08/24 12:10:03;;;;;;;1.65;0.57;;;24.40;55.10;;;;;;6228094;28;20727;-71
2021/08/24 12:13:07;;;;;;;2.33;1.23;;;24.40;55.10;;;;;;6244282;28;20017;-70
2021/08/24 12:16:21;;;;;;;1.92;1.00;;;24.40;55.10;;;;;;6237699;28;20410;-72
2021/08/24 12:19:23;;;;;;;1.70;0.90;;;24.40;55.10;;;;;;6227850;28;20030;-71
2021/08/24 12:22:42;;;;;;;2.28;1.23;;;24.40;55.10;;;;;;6256198;28;20276;-71
2021/08/24 12:25:46;;;;;;;2.95;1.80;;;24.30;55.00;;;;;;6226181;28;20036;-71
2021/08/24 12:28:47;;;;;;;4.00;1.83;;;24.30;55.00;;;;;;6242191;28;20450;-70
2021/08/24 12:31:48;;;;;;;4.10;1.55;;;24.40;55.80;;;;;;6238829;28;20307;-71
2021/08/24 12:35:07;;;;;;;5.00;2.15;;;24.30;55.10;;;;;;6241279;28;20429;-71
2021/08/24 12:38:30;;;;;;;6.22;2.90;;;24.30;55.10;;;;;;6241207;28;20029;-70
2021/08/24 12:41:36;;;;;;;7.80;2.92;;;24.40;55.10;;;;;;6234070;28;20052;-71
2021/08/24 12:44:46;;;;;;;6.07;2.95;;;24.40;55.10;;;;;;6229920;28;20025;-72
2021/08/24 12:47:48;;;;;;;9.35;3.97;;;24.30;55.10;;;;;;6230735;28;20026;-71
2021/08/24 12:50:55;;;;;;;7.57;3.60;;;24.40;55.10;;;;;;6240412;28;20040;-72
2021/08/24 12:54:02;;;;;;;6.82;3.38;;;24.30;55.00;;;;;;6242469;28;20104;-69
2021/08/24 12:57:05;;;;;;;10.98;5.07;;;24.30;55.10;;;;;;6242239;28;20049;-71
2021/08/24 13:00:22;;;;;;;16.73;5.85;;;24.30;55.10;;;;;;6233396;28;20045;-71
2021/08/24 13:03:25;;;;;;;19.95;7.55;;;24.30;55.10;;;;;;6240740;28;20026;-68
2021/08/24 13:06:32;;;;;;;25.45;11.15;;;24.30;55.10;;;;;;6228004;28;20066;-71
2021/08/24 13:09:36;;;;;;;20.88;9.82;;;24.30;55.10;;;;;;6262423;28;20021;-70
2021/08/24 13:12:40;;;;;;;32.67;14.05;;;24.40;55.20;;;;;;6241391;28;20482;-72
2021/08/24 13:15:42;;;;;;;39.00;16.23;;;24.40;55.20;;;;;;6227985;28;20346;-74
2021/08/24 13:18:55;;;;;;;49.55;18.75;;;24.30;55.10;;;;;;6242793;28;20504;-72
2021/08/24 13:22:01;;;;;;;65.15;26.35;;;24.30;55.10;;;;;;6243146;28;20025;-69
2021/08/24 13:25:09;;;;;;;52.08;22.33;;;24.40;55.10;;;;;;6229782;28;20021;-69
2021/08/24 13:28:12;;;;;;;80.93;31.73;;;24.30;54.90;;;;;;6237301;28;20062;-69
2021/08/24 13:31:25;;;;;;;53.83;22.33;;;24.40;54.30;;;;;;6241861;28;20026;-69
2021/08/24 13:34:47;;;;;;;62.22;23.25;;;24.30;52.50;;;;;;6239078;28;20382;-70
2021/08/24 13:37:49;;;;;;;49.05;20.35;;;24.40;52.80;;;;;;6229412;28;20025;-69
2021/08/24 13:40:52;;;;;;;47.63;20.80;;;24.40;50.20;;;;;;6230772;28;20037;-69
2021/08/24 13:43:57;;;;;;;45.70;18.17;;;24.40;50.40;;;;;;6235501;28;20028;-69
2021/08/24 13:47:04;;;;;;;37.92;17.17;;;24.40;50.10;;;;;;6241319;28;20029;-69
2021/08/24 13:50:11;;;;;;;36.75;15.30;;;24.40;51.00;;;;;;6240992;28;20075;-69
2021/08/24 13:53:19;;;;;;;29.75;13.95;;;24.40;51.90;;;;;;6241289;28;20024;-68
2021/08/24 13:56:29;;;;;;;33.15;14.32;;;24.40;49.80;;;;;;6239851;28;20418;-68
2021/08/24 14:00:05;;;;;;;32.60;13.85;;;24.30;50.80;;;;;;6241317;28;20109;-68
2021/08/24 14:03:12;;;;;;;;;;;24.40;51.90;;;;;;6241907;28;20030;-67
2021/08/24 14:06:29;;;;;;;27.13;12.48;;;24.40;52.50;;;;;;6229852;28;19905;-68
2021/08/24 14:09:51;;;;;;;31.40;13.35;;;24.30;52.80;;;;;;6235947;28;20025;-68
2021/08/24 14:12:53;;;;;;;32.13;12.07;;;24.30;53.00;;;;;;6241097;28;20061;-67
2021/08/24 14:15:56;;;;;;;25.15;11.15;;;24.30;53.40;;;;;;6230512;28;20133;-67
2021/08/24 14:19:04;;;;;;;25.02;10.98;;;24.30;53.50;;;;;;6231796;28;20021;-67
2021/08/24 14:22:08;;;;;;;22.77;10.57;;;24.30;53.60;;;;;;6240490;28;20040;-67
2021/08/24 14:25:17;;;;;;;20.42;9.95;;;24.30;53.60;;;;;;6240572;28;20067;-67
2021/08/24 14:28:20;;;;;;;24.85;10.25;;;24.30;53.80;;;;;;6236051;28;20053;-67
2021/08/24 14:31:24;;;;;;;23.52;9.65;;;24.30;53.60;;;;;;6232334;28;20021;-67
2021/08/24 14:34:40;;;;;;;22.00;9.15;;;24.30;53.80;;;;;;6229964;28;20071;-67
2021/08/24 14:37:46;;;;;;;18.00;9.25;;;24.30;53.80;;;;;;6222608;28;20750;-67
2021/08/24 14:40:46;;;;;;;24.58;9.73;;;24.30;53.70;;;;;;6237642;28;20034;-68
2021/08/24 14:43:54;;;;;;;18.05;8.63;;;24.30;53.90;;;;;;6228539;28;20494;-68
2021/08/24 14:46:59;;;;;;;19.83;9.18;;;24.30;53.90;;;;;;6227722;28;20030;-67
2021/08/24 14:50:01;;;;;;;17.77;8.18;;;24.30;53.80;;;;;;6235725;28;20074;-67
2021/08/24 14:53:04;;;;;;;15.65;8.38;;;24.30;53.90;;;;;;6240610;28;20453;-67
2021/08/24 14:56:10;;;;;;;15.85;8.18;;;24.30;53.80;;;;;;6236339;28;20041;-67
2021/08/24 14:59:16;;;;;;;15.30;7.88;;;24.30;53.60;;;;;;6232369;28;20016;-67
2021/08/24 15:02:17;;;;;;;14.75;7.70;;;24.30;54.00;;;;;;6245515;28;20525;-67
2021/08/24 15:05:29;;;;;;;15.45;7.78;;;24.30;53.80;;;;;;6244509;28;20053;-67
2021/08/24 15:08:38;;;;;;;14.77;7.32;;;24.30;53.60;;;;;;6244272;28;20471;-67
2021/08/24 15:11:46;;;;;;;16.25;8.25;;;24.30;53.90;;;;;;6239916;28;20022;-67
2021/08/24 15:14:49;;;;;;;15.52;8.15;;;24.40;53.80;;;;;;6231095;28;20136;-67
2021/08/24 15:17:53;;;;;;;14.98;7.22;;;24.30;54.00;;;;;;6244669;28;20475;-68
2021/08/24 15:20:59;;;;;;;17.05;8.32;;;24.30;54.10;;;;;;6244125;28;20065;-67
2021/08/24 15:24:07;;;;;;;17.55;8.13;;;24.30;54.20;;;;;;6242013;28;20043;-68
2021/08/24 15:27:19;;;;;;;15.65;8.00;;;24.30;54.20;;;;;;6244287;28;20029;-67
2021/08/24 15:30:24;;;;;;;16.95;7.82;;;24.30;54.20;;;;;;6244824;28;20045;-67
2021/08/24 15:33:47;;;;;;;17.52;8.18;;;24.30;54.20;;;;;;6244782;28;20044;-67
2021/08/24 15:36:47;;;;;;;17.73;8.30;;;24.30;54.20;;;;;;6236841;28;20516;-68
2021/08/24 15:39:48;;;;;;;17.48;8.48;;;24.30;54.30;;;;;;6244301;28;20022;-68
2021/08/24 15:42:50;;;;;;;17.98;8.73;;;24.30;54.30;;;;;;6244161;28;20026;-68
2021/08/24 15:45:50;;;;;;;17.05;8.43;;;24.30;54.30;;;;;;6243548;28;20475;-71
2021/08/24 15:48:52;;;;;;;18.88;9.35;;;24.30;54.30;;;;;;6244460;28;20071;-66
2021/08/24 15:51:55;;;;;;;18.60;9.00;;;24.30;54.40;;;;;;6245681;28;20048;-69
2021/08/24 15:54:56;;;;;;;19.05;9.55;;;24.30;54.40;;;;;;6241122;28;20032;-66
2021/08/24 15:57:57;;;;;;;18.42;9.00;;;24.30;54.50;;;;;;6244006;28;20045;-67
2021/08/24 16:00:58;;;;;;;20.30;8.93;;;24.30;54.50;;;;;;6242882;28;20036;-66
2021/08/24 16:03:59;;;;;;;21.77;9.13;;;24.30;54.50;;;;;;6243654;28;20029;-70
2021/08/24 16:07:01;;;;;;;18.25;9.48;;;24.30;54.50;;;;;;6240429;28;20081;-68